createdAt,value
2019-02-28T00:01:34.520Z,83.00
2019-02-28T00:04:04.839Z,83.50
2019-02-28T00:06:35.020Z,85.10
2019-02-28T00:09:06.945Z,86.30
2019-02-28T00:11:39.560Z,87.00
2019-02-28T00:14:09.085Z,87.00
2019-02-28T00:16:39.341Z,87.60
2019-02-28T00:19:09.508Z,87.80
2019-02-28T00:21:40.576Z,87.60
2019-02-28T00:24:11.381Z,88.60
2019-02-28T00:26:46.308Z,88.50
2019-02-28T00:29:13.560Z,88.80
2019-02-28T00:31:49.509Z,90.00
2019-02-28T00:34:15.557Z,89.00
2019-02-28T00:36:45.754Z,88.80
2019-02-28T00:39:16.130Z,88.60
2019-02-28T00:41:46.316Z,90.20
2019-02-28T00:44:16.490Z,89.70
2019-02-28T00:46:46.680Z,90.20
2019-02-28T00:49:16.973Z,90.60
2019-02-28T00:51:47.257Z,90.50
2019-02-28T00:54:17.597Z,91.10
2019-02-28T00:56:51.553Z,91.50
2019-02-28T00:59:19.692Z,91.40
2019-02-28T01:01:49.976Z,92.10
2019-02-28T01:04:20.260Z,92.00
2019-02-28T01:06:50.481Z,92.20
2019-02-28T01:09:20.843Z,92.10
2019-02-28T01:11:51.707Z,92.10
2019-02-28T01:14:21.879Z,92.30
2019-02-28T01:16:53.042Z,92.60
2019-02-28T01:19:23.751Z,92.40
2019-02-28T01:21:55.448Z,93.20
2019-02-28T01:24:25.845Z,93.90
2019-02-28T01:26:56.039Z,93.90
2019-02-28T01:29:26.206Z,93.70
2019-02-28T01:31:56.310Z,94.20
2019-02-28T01:34:29.030Z,94.50
2019-02-28T01:36:58.971Z,94.60
2019-02-28T01:39:30.702Z,94.50
2019-02-28T01:42:01.034Z,94.40
2019-02-28T01:44:35.621Z,94.90
2019-02-28T01:47:03.167Z,95.40
2019-02-28T01:49:33.439Z,95.30
2019-02-28T01:52:03.639Z,95.90
2019-02-28T01:54:35.020Z,96.00
2019-02-28T01:57:05.217Z,96.50
2019-02-28T01:59:35.396Z,96.90
2019-02-28T02:02:06.763Z,97.40
2019-02-28T02:04:37.123Z,97.40
2019-02-28T04:16:15.847Z,99.90
2019-02-28T04:18:46.801Z,99.90
2019-02-28T04:21:17.196Z,99.90
2019-02-28T04:23:47.394Z,99.90
2019-02-28T04:26:18.029Z,99.90
2019-02-28T04:28:53.403Z,99.90
2019-02-28T04:31:20.412Z,99.90
2019-02-28T04:33:51.483Z,99.90
2019-02-28T04:36:21.641Z,99.90
2019-02-28T04:38:52.474Z,99.90
2019-02-28T04:41:22.909Z,99.90
2019-02-28T04:43:53.311Z,99.90
2019-02-28T04:46:23.565Z,99.90
2019-02-28T04:48:53.735Z,99.90
2019-02-28T04:51:23.908Z,99.90
2019-02-28T04:53:54.058Z,99.90
2019-02-28T04:56:24.346Z,99.90
2019-02-28T04:58:56.498Z,99.90
2019-02-28T05:01:26.497Z,99.90
2019-02-28T05:03:59.140Z,99.90
2019-02-28T05:06:28.465Z,99.90
2019-02-28T05:08:58.748Z,99.90
2019-02-28T05:11:30.728Z,99.90
2019-02-28T05:14:00.893Z,99.90
2019-02-28T05:16:32.370Z,99.90
2019-02-28T05:19:02.723Z,99.90
2019-02-28T05:21:32.995Z,99.90
2019-02-28T05:24:03.154Z,99.90
2019-02-28T05:26:33.381Z,99.90
2019-02-28T05:29:03.538Z,99.90
2019-02-28T05:31:33.644Z,99.90
2019-02-28T05:34:03.870Z,99.90
2019-02-28T05:36:37.818Z,99.90
2019-02-28T05:39:08.630Z,99.90
2019-02-28T05:41:38.915Z,99.90
2019-02-28T05:44:09.076Z,99.90
2019-02-28T05:46:39.499Z,99.90
2019-02-28T05:49:09.849Z,99.90
2019-02-28T05:51:40.148Z,99.90
2019-02-28T05:54:15.677Z,99.90
2019-02-28T05:56:42.341Z,99.90
2019-02-28T05:59:12.486Z,99.90
2019-02-28T06:01:43.541Z,99.90
2019-02-28T06:04:14.571Z,99.90
2019-02-28T06:06:44.705Z,99.90
2019-02-28T06:09:14.907Z,99.90
2019-02-28T06:11:45.034Z,99.90
2019-02-28T06:14:15.191Z,99.90
2019-02-28T06:16:46.907Z,99.90
2019-02-28T06:19:17.276Z,99.90
2019-02-28T06:21:47.489Z,99.90
2019-02-28T06:24:17.724Z,99.90
2019-02-28T06:26:48.010Z,99.90
2019-02-28T06:29:18.267Z,99.90
2019-02-28T06:31:49.384Z,99.90
2019-02-28T06:34:20.275Z,99.90
2019-02-28T06:36:51.657Z,99.90
2019-02-28T06:39:26.882Z,99.90
2019-02-28T06:41:55.424Z,99.90
2019-02-28T06:44:26.976Z,99.90
2019-02-28T06:46:57.371Z,99.90
2019-02-28T06:49:27.546Z,99.90
2019-02-28T06:51:57.770Z,99.90
2019-02-28T06:54:28.222Z,99.90
2019-02-28T06:56:58.367Z,99.90
2019-02-28T06:59:28.549Z,99.90
2019-02-28T07:01:58.869Z,99.90
2019-02-28T07:04:29.147Z,99.90
2019-02-28T07:06:59.300Z,99.90
2019-02-28T07:09:30.488Z,99.90
2019-02-28T07:12:00.799Z,99.90
2019-02-28T07:16:57.596Z,99.90
2019-02-28T07:19:27.979Z,99.90
2019-02-28T07:21:58.346Z,99.90
2019-02-28T07:24:28.622Z,99.90
2019-02-28T07:26:58.793Z,99.90
2019-02-28T07:29:28.954Z,99.90
2019-02-28T07:32:01.329Z,99.90
2019-02-28T07:34:31.184Z,99.90
2019-02-28T07:37:01.709Z,99.90
2019-02-28T07:39:36.549Z,99.90
2019-02-28T07:42:06.271Z,99.90
2019-02-28T07:44:38.048Z,99.90
2019-02-28T07:47:08.328Z,99.90
2019-02-28T07:49:38.586Z,99.90
2019-02-28T07:52:09.068Z,99.90
2019-02-28T07:54:39.228Z,99.90
2019-02-28T07:57:09.435Z,99.90
2019-02-28T07:59:42.404Z,99.90
2019-02-28T08:02:11.681Z,99.90
2019-02-28T08:04:43.578Z,99.90
2019-02-28T08:07:14.728Z,99.90
2019-02-28T08:09:45.995Z,99.90
2019-02-28T08:12:16.203Z,99.90
2019-02-28T08:14:47.027Z,99.90
2019-02-28T08:17:18.214Z,99.90
2019-02-28T08:19:48.430Z,99.90
2019-02-28T08:22:23.242Z,99.90
2019-02-28T08:24:52.059Z,99.90
2019-02-28T08:27:25.362Z,99.90
2019-02-28T08:29:54.201Z,99.90
2019-02-28T08:32:24.367Z,99.90
2019-02-28T08:34:55.585Z,99.90
2019-02-28T08:37:26.330Z,99.90
2019-02-28T08:39:56.523Z,99.90
2019-02-28T08:42:26.695Z,99.90
2019-02-28T08:44:58.966Z,99.90
2019-02-28T08:47:29.103Z,99.90
2019-02-28T08:49:59.282Z,99.90
2019-02-28T08:52:29.453Z,99.90
2019-02-28T08:54:59.762Z,99.90
2019-02-28T08:57:31.427Z,99.90
2019-02-28T09:00:01.623Z,99.90
2019-02-28T09:02:31.887Z,99.90
2019-02-28T09:05:02.686Z,99.90
2019-02-28T09:07:32.847Z,99.90
2019-02-28T09:10:03.422Z,99.90
2019-02-28T09:12:34.120Z,99.90
2019-02-28T09:15:16.074Z,99.90
2019-02-28T09:17:46.495Z,99.60
2019-02-28T09:20:17.242Z,99.90
2019-02-28T09:22:47.411Z,99.40
2019-02-28T09:25:22.892Z,97.60
2019-02-28T09:27:53.358Z,98.40
2019-02-28T09:30:42.641Z,98.60
2019-02-28T09:33:12.884Z,98.20
2019-02-28T09:35:46.311Z,97.90
2019-02-28T09:38:15.619Z,97.50
2019-02-28T09:40:46.121Z,96.70
2019-02-28T09:43:16.311Z,97.90
2019-02-28T09:45:46.527Z,97.00
2019-02-28T09:48:17.224Z,97.30
2019-02-28T09:50:47.740Z,96.90
2019-02-28T09:53:18.039Z,96.80
2019-02-28T09:55:48.399Z,96.60
2019-02-28T09:58:18.836Z,95.70
2019-02-28T10:00:50.432Z,96.00
2019-02-28T10:03:21.160Z,95.00
2019-02-28T10:05:52.105Z,95.60
2019-02-28T10:08:22.699Z,95.10
2019-02-28T10:10:55.788Z,94.70
2019-02-28T10:13:24.886Z,94.90
2019-02-28T10:15:55.266Z,95.40
2019-02-28T10:18:25.467Z,96.10
2019-02-28T10:20:55.783Z,95.50
2019-02-28T10:23:27.232Z,95.20
2019-02-28T10:25:57.432Z,95.40
2019-02-28T10:28:27.638Z,95.70
2019-02-28T10:30:57.824Z,95.80
2019-02-28T10:33:28.052Z,94.70
2019-02-28T10:35:58.513Z,94.70
2019-02-28T10:38:33.107Z,93.90
2019-02-28T10:41:01.661Z,95.10
2019-02-28T10:43:32.080Z,93.90
2019-02-28T10:46:02.323Z,93.20
2019-02-28T10:48:35.226Z,93.00
2019-02-28T10:51:12.038Z,91.80
2019-02-28T10:53:39.324Z,92.00
2019-02-28T10:56:09.204Z,92.10
2019-02-28T10:58:39.677Z,92.60
2019-02-28T11:01:10.920Z,91.90
2019-02-28T11:03:41.141Z,91.00
2019-02-28T11:06:11.522Z,91.80
2019-02-28T11:08:44.535Z,91.00
2019-02-28T11:11:14.326Z,90.90
2019-02-28T11:13:45.308Z,90.60
2019-02-28T11:16:15.958Z,90.20
2019-02-28T11:18:46.518Z,90.80
2019-02-28T11:21:16.843Z,89.60
2019-02-28T11:23:50.105Z,91.00
2019-02-28T11:26:19.183Z,89.40
2019-02-28T11:28:49.367Z,90.00
2019-02-28T11:31:20.085Z,90.50
2019-02-28T11:33:50.680Z,90.50
2019-02-28T11:36:21.659Z,90.30
2019-02-28T11:38:52.551Z,89.70
2019-02-28T11:41:23.979Z,90.10
2019-02-28T11:43:54.427Z,90.10
2019-02-28T11:46:24.723Z,89.00
2019-02-28T11:48:55.110Z,89.40
2019-02-28T11:51:25.730Z,90.30
2019-02-28T11:53:55.914Z,89.00
2019-02-28T11:56:28.800Z,89.50
2019-02-28T11:58:58.044Z,89.00
2019-02-28T12:01:28.554Z,88.30
2019-02-28T12:03:58.763Z,88.60
2019-02-28T12:06:29.047Z,88.30
2019-02-28T12:08:59.676Z,88.00
2019-02-28T12:11:33.483Z,88.20
2019-02-28T12:14:03.374Z,87.70
2019-02-28T12:16:35.210Z,87.70
2019-02-28T12:19:06.016Z,86.30
2019-02-28T12:21:38.089Z,87.30
2019-02-28T12:24:08.727Z,87.90
2019-02-28T12:26:41.313Z,87.30
2019-02-28T12:29:13.863Z,88.60
2019-02-28T12:31:48.684Z,88.90
2019-02-28T12:34:19.765Z,89.60
2019-02-28T12:36:50.751Z,87.20
2019-02-28T12:39:23.585Z,87.80
2019-02-28T12:41:56.562Z,84.90
2019-02-28T12:44:26.630Z,82.30
2019-02-28T12:47:00.290Z,82.20
2019-02-28T12:52:22.340Z,81.70
2019-02-28T12:54:53.429Z,80.80
2019-02-28T12:57:24.420Z,80.50
2019-02-28T12:59:55.051Z,76.90
2019-02-28T13:02:25.812Z,76.10
2019-02-28T13:04:56.549Z,76.10
2019-02-28T13:07:30.492Z,76.10
2019-02-28T13:10:08.532Z,75.90
2019-02-28T13:12:39.347Z,75.40
2019-02-28T13:15:13.169Z,74.40
2019-02-28T13:17:44.522Z,74.80
2019-02-28T13:20:17.199Z,73.80
2019-02-28T13:22:48.310Z,74.20
2019-02-28T13:25:23.316Z,73.40
2019-02-28T13:27:53.445Z,73.90
2019-02-28T13:30:28.161Z,75.30
2019-02-28T13:32:59.397Z,73.10
2019-02-28T13:35:46.741Z,72.40
2019-02-28T13:38:19.112Z,71.10
2019-02-28T13:40:47.868Z,72.40
2019-02-28T13:43:20.971Z,73.40
2019-02-28T13:45:55.811Z,71.20
2019-02-28T13:48:26.319Z,70.20
2019-02-28T13:50:59.411Z,70.20
2019-02-28T13:53:30.480Z,70.40
2019-02-28T13:56:04.839Z,71.20
2019-02-28T13:58:34.900Z,70.10
2019-02-28T14:01:07.649Z,70.10
2019-02-28T14:03:42.329Z,68.90
2019-02-28T14:06:11.657Z,68.90
2019-02-28T14:08:46.326Z,69.10
2019-02-28T14:11:16.716Z,69.40
2019-02-28T14:13:47.746Z,67.60
2019-02-28T14:16:18.896Z,67.30
2019-02-28T14:18:49.531Z,68.40
2019-02-28T14:21:20.352Z,69.00
2019-02-28T14:23:55.561Z,66.10
2019-02-28T14:26:24.693Z,66.10
2019-02-28T14:28:56.343Z,65.90
2019-02-28T14:31:29.463Z,66.00
2019-02-28T14:34:03.939Z,66.50
2019-02-28T14:36:36.615Z,67.20
2019-02-28T14:39:10.438Z,67.50
2019-02-28T14:41:41.647Z,67.70
2019-02-28T14:44:12.989Z,68.40
2019-02-28T14:46:44.383Z,67.90
2019-02-28T14:49:15.567Z,68.30
2019-02-28T14:51:48.458Z,68.20
2019-02-28T14:54:21.863Z,68.70
2019-02-28T14:56:53.742Z,69.50
2019-02-28T14:59:24.356Z,70.30
2019-02-28T15:01:54.511Z,69.30
2019-02-28T15:04:24.911Z,68.80
2019-02-28T15:06:55.091Z,70.00
2019-02-28T15:09:27.015Z,70.80
2019-02-28T15:11:57.254Z,70.10
2019-02-28T15:14:27.444Z,71.00
2019-02-28T15:16:57.609Z,70.70
2019-02-28T15:19:28.895Z,70.00
2019-02-28T15:21:59.071Z,69.60
2019-02-28T15:24:29.331Z,69.90
2019-02-28T15:26:59.509Z,69.80
2019-02-28T15:29:29.893Z,69.80
2019-02-28T15:32:00.084Z,69.10
2019-02-28T15:34:30.337Z,69.60
2019-02-28T15:37:01.092Z,68.80
2019-02-28T15:39:31.455Z,67.80
2019-02-28T15:42:01.715Z,66.40
2019-02-28T15:44:31.919Z,66.90
2019-02-28T15:47:02.192Z,66.80
2019-02-28T15:49:32.377Z,67.10
2019-02-28T15:52:05.266Z,67.30
2019-02-28T15:54:34.677Z,67.80
2019-02-28T15:57:05.219Z,68.00
2019-02-28T15:59:35.599Z,68.50
2019-02-28T16:02:06.349Z,68.50
2019-02-28T16:04:37.487Z,68.80
2019-02-28T16:07:07.773Z,69.30
2019-02-28T16:09:37.971Z,69.40
2019-02-28T16:12:08.451Z,69.50
2019-02-28T16:14:38.659Z,70.00
2019-02-28T16:17:08.815Z,70.40
2019-02-28T16:19:39.116Z,70.20
2019-02-28T16:22:09.310Z,71.00
2019-02-28T16:24:40.582Z,71.30
2019-02-28T16:27:10.817Z,71.40
2019-02-28T16:29:41.015Z,72.30
2019-02-28T16:32:14.224Z,72.90
2019-02-28T16:34:43.991Z,73.50
2019-02-28T16:37:14.263Z,74.10
2019-02-28T16:39:44.477Z,75.30
2019-02-28T16:42:15.254Z,74.90
2019-02-28T16:44:46.999Z,75.00
2019-02-28T16:47:21.527Z,75.40
2019-02-28T16:49:52.719Z,76.60
2019-02-28T16:52:23.021Z,77.40
2019-02-28T16:54:56.293Z,77.80
2019-02-28T16:57:25.384Z,78.20
2019-02-28T16:59:55.594Z,79.00
2019-02-28T17:02:26.363Z,80.00
2019-02-28T17:04:56.806Z,80.50
2019-02-28T17:07:26.990Z,81.30
2019-02-28T17:09:57.195Z,81.80
2019-02-28T17:12:35.012Z,82.20
2019-02-28T17:15:11.272Z,82.40
2019-02-28T17:17:43.496Z,82.90
2019-02-28T17:20:14.935Z,83.30
2019-02-28T17:22:45.124Z,83.60
2019-02-28T17:25:18.439Z,83.60
2019-02-28T17:27:51.935Z,84.10
2019-02-28T17:30:23.794Z,84.50
2019-02-28T17:32:53.984Z,84.90
2019-02-28T17:35:24.559Z,85.10
2019-02-28T17:37:59.994Z,85.20
2019-02-28T17:40:27.078Z,85.90
2019-02-28T17:42:57.587Z,86.00
2019-02-28T17:45:28.174Z,85.90
2019-02-28T17:48:26.815Z,85.80
2019-02-28T17:51:15.040Z,85.80
2019-02-28T17:53:50.245Z,86.00
2019-02-28T17:56:37.585Z,86.20
2019-02-28T17:59:13.169Z,86.20
2019-02-28T18:02:06.228Z,87.10
2019-02-28T18:04:51.507Z,86.40
2019-02-28T18:07:30.518Z,86.60
2019-02-28T18:10:15.388Z,86.70
2019-02-28T18:12:54.750Z,87.10
2019-02-28T18:15:30.968Z,87.20
2019-02-28T18:18:10.239Z,87.20
2019-02-28T18:20:49.283Z,87.40
2019-02-28T18:23:40.841Z,87.70
2019-02-28T18:26:14.231Z,88.10
2019-02-28T18:28:50.357Z,88.80
2019-02-28T18:31:22.291Z,89.50
2019-02-28T18:33:56.015Z,90.10
2019-02-28T18:36:29.005Z,90.30
2019-02-28T18:38:59.374Z,90.40
2019-02-28T18:41:29.692Z,90.80
2019-02-28T18:44:03.341Z,91.00
2019-02-28T18:46:31.913Z,91.20
2019-02-28T18:49:02.103Z,91.50
2019-02-28T18:51:32.511Z,92.00
2019-02-28T18:54:02.707Z,92.30
2019-02-28T18:56:35.706Z,92.60
2019-02-28T18:59:05.907Z,93.10
2019-02-28T19:01:36.118Z,94.10
2019-02-28T19:04:06.308Z,94.60
2019-02-28T19:06:36.687Z,95.50
2019-02-28T19:09:19.099Z,96.00
2019-02-28T19:11:49.452Z,96.40
2019-02-28T19:14:19.749Z,97.30
2019-02-28T19:16:50.184Z,97.70
2019-02-28T19:19:20.583Z,98.10
2019-02-28T19:21:50.775Z,98.40
2019-02-28T19:24:20.940Z,98.40
2019-02-28T19:26:51.357Z,98.70
2019-02-28T19:29:21.808Z,98.50
2019-02-28T19:32:12.194Z,98.60
2019-02-28T19:34:45.827Z,98.80
2019-02-28T19:37:16.063Z,98.80
2019-02-28T19:39:46.226Z,99.00
2019-02-28T19:42:17.066Z,99.20
2019-02-28T19:44:48.019Z,99.30
2019-02-28T19:47:18.329Z,99.50
2019-02-28T19:49:48.702Z,99.80
2019-02-28T19:52:19.083Z,99.90
2019-02-28T19:54:49.321Z,99.90
2019-02-28T19:57:20.036Z,99.90
2019-02-28T19:59:50.987Z,99.90
2019-02-28T20:02:21.238Z,99.90
2019-02-28T20:04:51.334Z,99.90
2019-02-28T20:07:21.510Z,99.90
2019-02-28T20:09:51.670Z,99.90
2019-02-28T20:12:21.944Z,99.90
2019-02-28T20:14:52.362Z,99.90
2019-02-28T20:17:22.626Z,99.90
2019-02-28T20:19:52.889Z,99.90
2019-02-28T20:22:23.947Z,99.90
2019-02-28T20:24:55.511Z,99.90
2019-02-28T20:27:25.694Z,99.90
2019-02-28T20:29:56.911Z,99.90
2019-02-28T20:32:27.286Z,99.90
2019-02-28T20:34:57.653Z,99.90
2019-02-28T20:37:28.199Z,99.90
2019-02-28T20:39:58.352Z,99.90
2019-02-28T20:42:28.631Z,99.90
2019-02-28T20:44:58.783Z,99.90
2019-02-28T20:47:29.159Z,99.90
2019-02-28T20:49:59.348Z,99.90
2019-02-28T20:52:31.238Z,99.90
2019-02-28T20:55:01.500Z,99.90
2019-02-28T20:57:31.953Z,99.90
2019-02-28T21:00:02.212Z,99.90
2019-02-28T21:02:32.391Z,99.90
2019-02-28T21:05:02.543Z,99.90
2019-02-28T21:07:32.732Z,99.90
2019-02-28T21:10:05.100Z,99.90
2019-02-28T21:12:35.618Z,99.90
2019-02-28T21:15:08.515Z,99.90
2019-02-28T21:17:39.359Z,99.90
2019-02-28T21:20:12.330Z,99.90
2019-02-28T21:22:43.046Z,99.90
2019-02-28T21:25:14.855Z,99.90
2019-02-28T21:27:45.095Z,99.90
2019-02-28T21:30:18.194Z,99.90
2019-02-28T21:32:48.370Z,99.90
2019-02-28T21:35:18.610Z,99.90
2019-02-28T21:37:49.058Z,99.90
2019-02-28T21:40:20.560Z,99.90
2019-02-28T21:42:51.071Z,99.90
2019-02-28T21:45:25.751Z,99.90
2019-02-28T21:47:56.141Z,99.90
2019-02-28T21:50:26.384Z,99.90
2019-02-28T21:52:56.800Z,99.90
2019-02-28T21:55:26.951Z,99.90
2019-02-28T21:57:57.187Z,99.90
2019-02-28T22:00:31.653Z,99.90
2019-02-28T22:03:01.807Z,99.90
2019-02-28T22:05:31.992Z,99.90
2019-02-28T22:08:02.142Z,99.90
2019-02-28T22:10:32.340Z,99.90
2019-02-28T22:13:02.468Z,99.90
2019-02-28T22:15:32.709Z,99.90
2019-02-28T22:18:02.981Z,99.90
2019-02-28T22:20:33.423Z,99.90
2019-02-28T22:23:03.700Z,99.90
2019-02-28T22:25:33.886Z,99.90
2019-02-28T22:28:04.133Z,99.90
2019-02-28T22:30:42.534Z,99.90
2019-02-28T22:33:14.331Z,99.90
2019-02-28T22:35:46.149Z,99.90
2019-02-28T22:38:16.314Z,99.90
2019-02-28T22:40:46.585Z,99.90
2019-02-28T22:43:16.741Z,99.90
2019-02-28T22:45:47.127Z,99.90
2019-02-28T22:48:17.499Z,99.90
2019-02-28T22:50:47.684Z,99.90
2019-02-28T22:53:18.046Z,99.90
2019-02-28T22:55:48.432Z,99.90
2019-02-28T22:58:18.594Z,99.90
2019-02-28T23:01:11.495Z,99.90
2019-02-28T23:03:41.901Z,99.90
2019-02-28T23:06:12.148Z,99.90
2019-02-28T23:08:42.419Z,99.90
2019-02-28T23:11:12.970Z,99.90
2019-02-28T23:13:43.135Z,99.90
2019-02-28T23:16:13.400Z,99.90
2019-02-28T23:18:43.684Z,99.90
2019-02-28T23:21:13.866Z,99.90
2019-02-28T23:23:43.959Z,99.90
2019-02-28T23:26:14.319Z,99.90
2019-02-28T23:28:53.836Z,99.90
2019-02-28T23:31:53.174Z,99.90
2019-02-28T23:34:31.865Z,99.90
2019-02-28T23:37:02.143Z,99.90
2019-02-28T23:39:32.514Z,99.90
2019-02-28T23:42:02.975Z,99.90
2019-02-28T23:44:33.170Z,99.90
2019-02-28T23:47:04.512Z,99.90
2019-02-28T23:49:35.102Z,99.90
2019-02-28T23:52:05.395Z,99.90
2019-02-28T23:54:36.498Z,99.90
2019-02-28T23:57:06.769Z,99.90
2019-02-28T23:59:37.181Z,99.90
